Shenzhen Bao'an International Airport
ZGSZ : now visible

Airfield :











YOU CAN JOIN US ON...

 
LOGIN :

Register | Disclaimer

   EN    FR    IT 

 









Legend :    VFR   Marginal VFR   IFR   Intensive IFR   Very Intensive IFR
Visi :
Ceiling :
>= 8 km
>= 3000ft
5 to 8 km
1000 to 3000 ft
1500m to 5 km
500 to 1000 ft
800 to 1500m
200 to 500 ft
< 800m
< 200 ft
Symbols :   Thunderstorms  Fog  Heavy snow  Heavy precipitations  Wind > 20 kt






- Airport Elevation : 13 ft
- IATA code : SZX


ZGSZ - Shenzhen Bao'an International

EXPIRED METARs :
  • 301400Z 01003MPS 9999 BKN008 BKN020 18/16 Q1013 NOSIG
  • 301300Z 02004MPS 6000 BKN008 BKN020 17/16 Q1013 NOSIG

TAF TAF ZGSZ
Valid from the 30 at 12:00 until the 31 at 12:00 UTC


300910Z 3012/3112 01005MPS 5000 BR SCT013 BKN040 TX24/3106Z TN18/3022Z
BECMG 3016/3018 10004MPS
BECMG 3103/3104 18004MPS
TEMPO 3104/3110 2500 RA
BECMG 3111/3112 30005MPS



MET'MAP, your aeronautical weather chart ! - Copyright ORBIFLY December 2007 - Disclaimer

ORBIFLY MET'MAP TEAM :

Programming & Development : Alexandra Zaïnal
Concept & original design : Baudouin d'Aumeries
Assistance for programming : Marc-Olivier Méhu
Technical & hardware support : Manuel Goepfert

Contact : metmap@orbifly.com




SOURCES & CREDITS :

   NOAA       Earth
Advisory